createdAt,value
2019-05-17T08:29:11.684Z,94961.79
2019-05-17T08:31:41.153Z,94962.00
2019-05-17T08:34:10.565Z,94953.88
2019-05-17T08:36:40.669Z,94946.72
2019-05-17T08:39:10.439Z,94953.28
2019-05-17T08:41:40.533Z,94953.23
2019-05-17T08:44:10.362Z,94949.28
2019-05-17T08:46:39.935Z,94943.17
2019-05-17T08:49:09.941Z,94949.05
2019-05-17T08:51:39.804Z,94942.84
2019-05-17T08:54:10.325Z,94950.00
2019-05-17T08:56:40.464Z,94950.77
2019-05-17T08:59:09.973Z,94939.63
2019-05-17T09:01:41.813Z,94940.22
2019-05-17T09:04:10.502Z,94935.56
2019-05-17T09:06:39.936Z,94940.02
2019-05-17T09:09:09.977Z,94929.03
2019-05-17T09:11:39.691Z,94930.77
2019-05-17T09:14:10.512Z,94928.08
2019-05-17T09:16:40.258Z,94927.95
2019-05-17T09:19:10.205Z,94922.34
2019-05-17T09:21:39.879Z,94927.91
2019-05-17T09:24:10.415Z,94927.91
2019-05-17T09:26:40.146Z,94929.25
2019-05-17T09:29:10.745Z,94932.98
2019-05-17T09:31:40.524Z,94931.22
2019-05-17T09:34:10.590Z,94925.41
2019-05-17T09:36:41.000Z,94921.31
2019-05-17T09:39:10.567Z,94922.63
2019-05-17T09:41:40.042Z,94922.91
2019-05-17T09:44:15.567Z,94921.55
2019-05-17T09:46:40.554Z,94913.75
2019-05-17T09:49:10.585Z,94912.02
2019-05-17T09:51:40.092Z,94917.69
2019-05-17T09:54:10.255Z,94914.38
2019-05-17T09:56:39.795Z,94908.45
2019-05-17T09:59:10.088Z,94907.33
2019-05-17T10:01:39.811Z,94910.64
2019-05-17T10:04:13.269Z,94902.59
2019-05-17T10:06:40.265Z,94907.50
2019-05-17T10:09:09.751Z,94911.75
2019-05-17T10:11:39.969Z,94906.33
2019-05-17T10:14:11.568Z,94907.59
2019-05-17T10:16:40.481Z,94898.86
2019-05-17T10:19:09.822Z,94899.03
2019-05-17T10:21:39.923Z,94895.67
2019-05-17T10:24:09.753Z,94890.62
2019-05-17T10:26:39.324Z,94891.88
2019-05-17T10:29:10.019Z,94890.25
2019-05-17T10:31:39.921Z,94890.45
2019-05-17T10:34:09.734Z,94898.33
2019-05-17T10:36:40.154Z,94895.97
2019-05-17T10:39:10.097Z,94893.46
2019-05-17T10:41:40.666Z,94896.33
2019-05-17T10:44:10.293Z,94898.43
2019-05-17T10:46:40.653Z,94885.22
2019-05-17T10:49:10.832Z,94884.88
2019-05-17T10:51:40.450Z,94891.27
2019-05-17T10:54:09.905Z,94892.05
2019-05-17T10:56:39.255Z,94887.83
2019-05-17T10:59:09.875Z,94896.41
2019-05-17T11:01:39.409Z,94897.19
2019-05-17T11:04:10.439Z,94883.08
2019-05-17T11:06:39.960Z,94889.16
2019-05-17T11:09:10.296Z,94884.98
2019-05-17T11:11:39.796Z,94887.79
2019-05-17T11:14:09.184Z,94891.05
2019-05-17T11:16:38.525Z,94883.36
2019-05-17T11:19:08.827Z,94874.81
2019-05-17T11:21:38.319Z,94878.94
2019-05-17T11:24:07.754Z,94870.30
2019-05-17T11:26:37.094Z,94876.75
2019-05-17T11:29:06.548Z,94871.59
2019-05-17T11:31:35.924Z,94868.52
2019-05-17T11:34:05.394Z,94868.99
2019-05-17T11:36:34.785Z,94869.17
2019-05-17T11:39:05.986Z,94867.19
2019-05-17T11:41:35.321Z,94867.27
2019-05-17T11:44:04.703Z,94868.19
2019-05-17T11:46:36.455Z,94869.56
2019-05-17T11:49:05.091Z,94867.17
2019-05-17T11:51:34.488Z,94867.14
2019-05-17T11:54:03.953Z,94874.41
2019-05-17T11:56:33.299Z,94869.91
2019-05-17T11:59:02.626Z,94864.52
2019-05-17T12:01:31.999Z,94870.82
2019-05-17T12:04:01.389Z,94869.14
2019-05-17T12:06:30.751Z,94863.52
2019-05-17T12:09:00.163Z,94868.06
2019-05-17T12:11:29.571Z,94872.43
2019-05-17T12:13:59.044Z,94862.32
2019-05-17T12:16:28.376Z,94860.59
2019-05-17T12:18:57.806Z,94852.47
2019-05-17T12:21:27.182Z,94857.70
2019-05-17T12:23:56.592Z,94864.55
2019-05-17T12:26:25.972Z,94864.77
2019-05-17T12:28:55.303Z,94850.06
2019-05-17T12:31:24.707Z,94851.09
2019-05-17T12:33:54.081Z,94850.34
2019-05-17T12:36:23.448Z,94848.30
2019-05-17T12:38:52.769Z,94845.80
2019-05-17T12:41:22.222Z,94839.00
2019-05-17T12:43:51.611Z,94838.12
2019-05-17T12:46:21.057Z,94839.85
2019-05-17T12:48:50.379Z,94842.69
2019-05-17T12:51:19.736Z,94833.95
2019-05-17T12:53:49.129Z,94837.20
2019-05-17T12:56:18.456Z,94835.32
2019-05-17T12:58:47.799Z,94836.08
2019-05-17T13:01:17.167Z,94843.45
2019-05-17T13:03:46.546Z,94835.97
2019-05-17T13:06:15.886Z,94829.55
2019-05-17T13:08:45.238Z,94827.19
2019-05-17T13:11:14.604Z,94822.41
2019-05-17T13:13:43.989Z,94826.88
2019-05-17T13:16:17.843Z,94818.09
2019-05-17T13:18:44.361Z,94819.17
2019-05-17T13:21:13.728Z,94807.67
2019-05-17T13:23:43.085Z,94807.05
2019-05-17T13:26:12.442Z,94805.61
2019-05-17T13:28:41.876Z,94801.42
2019-05-17T13:31:11.557Z,94800.92
2019-05-17T13:33:41.137Z,94806.69
2019-05-17T13:36:10.685Z,94800.38
2019-05-17T13:38:40.069Z,94793.19
2019-05-17T13:41:09.419Z,94798.42
2019-05-17T13:43:38.806Z,94809.84
2019-05-17T13:46:08.257Z,94825.06
2019-05-17T13:48:37.627Z,94827.95
2019-05-17T13:51:06.944Z,94832.59
2019-05-17T13:53:36.281Z,94823.59
2019-05-17T13:56:05.623Z,94817.02
2019-05-17T13:58:34.971Z,94810.70
2019-05-17T14:01:04.397Z,94820.97
2019-05-17T14:03:33.824Z,94820.97
2019-05-17T14:06:03.163Z,94833.67
2019-05-17T14:08:32.516Z,94841.30
2019-05-17T14:11:02.008Z,94855.71
2019-05-17T14:13:31.408Z,94846.73
2019-05-17T14:16:00.807Z,94838.34
2019-05-17T14:18:30.167Z,94846.54
2019-05-17T14:20:59.480Z,94851.20
2019-05-17T14:23:28.821Z,94842.37
2019-05-17T14:25:58.156Z,94834.93
2019-05-17T14:28:27.496Z,94840.55
2019-05-17T14:30:56.837Z,94849.52
2019-05-17T14:33:26.147Z,94859.19
2019-05-17T14:35:55.490Z,94857.80
2019-05-17T14:38:24.790Z,94856.43
2019-05-17T14:41:06.358Z,94863.78
2019-05-17T14:43:25.221Z,94860.39
2019-05-17T14:45:54.609Z,94859.30
2019-05-17T14:48:24.451Z,94866.23
2019-05-17T14:50:53.849Z,94878.49
2019-05-17T14:53:23.196Z,94879.72
2019-05-17T14:55:52.511Z,94882.94
2019-05-17T14:58:21.854Z,94878.06
2019-05-17T15:00:51.201Z,94871.08
2019-05-17T15:03:20.519Z,94867.78
2019-05-17T15:05:49.894Z,94864.95
2019-05-17T15:08:19.291Z,94882.44
2019-05-17T15:10:48.598Z,94884.55
2019-05-17T15:13:17.926Z,94880.17
2019-05-17T15:15:47.606Z,94869.45
2019-05-17T15:18:17.170Z,94861.69
2019-05-17T15:20:46.495Z,94853.94
2019-05-17T15:23:15.842Z,94860.11
2019-05-17T15:25:45.202Z,94867.12
2019-05-17T15:28:14.561Z,94871.31
2019-05-17T15:30:43.871Z,94868.26
2019-05-17T15:33:13.259Z,94859.94
2019-05-17T15:35:42.574Z,94849.62
2019-05-17T15:38:11.925Z,94857.73
2019-05-17T15:40:41.347Z,94850.06
2019-05-17T15:43:10.759Z,94856.34
2019-05-17T15:45:40.458Z,94863.71
2019-05-17T15:48:09.846Z,94869.05
2019-05-17T15:50:39.154Z,94867.91
2019-05-17T15:53:08.496Z,94848.68
2019-05-17T15:55:37.824Z,94842.48
2019-05-17T15:58:07.207Z,94844.78
2019-05-17T16:00:36.553Z,94846.69
2019-05-17T16:03:05.882Z,94847.77
2019-05-17T16:05:35.213Z,94851.84
2019-05-17T16:08:04.573Z,94861.77
2019-05-17T16:10:33.984Z,94861.55
2019-05-17T16:13:03.735Z,94865.53
2019-05-17T16:15:33.137Z,94871.91
2019-05-17T16:18:02.448Z,94891.14
2019-05-17T16:20:31.751Z,94890.83
2019-05-17T16:23:01.090Z,94886.89
2019-05-17T16:25:33.729Z,94869.37
2019-05-17T16:28:01.538Z,94869.37
2019-05-17T16:30:30.861Z,94872.17
2019-05-17T16:33:00.210Z,94875.59
2019-05-17T16:35:29.854Z,94873.19
2019-05-17T16:37:59.547Z,94868.79
2019-05-17T16:40:29.186Z,94880.79
2019-05-17T16:42:58.817Z,94883.75
2019-05-17T16:45:28.375Z,94887.58
2019-05-17T16:47:58.165Z,94892.57
2019-05-17T16:50:27.539Z,94892.92
2019-05-17T16:53:05.508Z,94895.89
2019-05-17T16:55:27.975Z,94894.25
2019-05-17T16:57:57.283Z,94891.15
2019-05-17T17:00:33.357Z,94901.70
2019-05-17T17:03:03.134Z,94889.34
2019-05-17T17:05:32.484Z,94884.38
2019-05-17T17:08:02.215Z,94890.55
2019-05-17T17:10:31.534Z,94903.66
2019-05-17T17:13:00.850Z,94917.48
2019-05-17T17:15:30.236Z,94924.02
2019-05-17T17:17:59.609Z,94927.06
2019-05-17T17:20:29.237Z,94932.98
2019-05-17T17:22:58.667Z,94926.45
2019-05-17T17:25:28.214Z,94916.19
2019-05-17T17:27:57.544Z,94906.26
2019-05-17T17:30:26.851Z,94915.41
2019-05-17T17:32:56.368Z,94916.12
2019-05-17T17:35:25.762Z,94922.91
2019-05-17T17:37:55.557Z,94922.13
2019-05-17T17:40:25.312Z,94918.48
2019-05-17T17:42:54.661Z,94919.05
2019-05-17T17:45:25.584Z,94931.70
2019-05-17T17:47:54.950Z,94936.59
2019-05-17T17:50:24.402Z,94934.17
2019-05-17T17:52:53.727Z,94924.31
2019-05-17T17:55:23.186Z,94923.31
2019-05-17T17:57:52.893Z,94934.28
2019-05-17T18:00:22.807Z,94925.47
2019-05-17T18:02:52.289Z,94920.98
2019-05-17T18:05:24.910Z,94924.04
2019-05-17T18:07:52.695Z,94920.64
2019-05-17T18:10:30.966Z,94915.78
2019-05-17T18:13:00.362Z,94915.07
2019-05-17T18:15:37.901Z,94913.61
2019-05-17T18:18:07.445Z,94913.15
2019-05-17T18:20:37.072Z,94920.83
2019-05-17T18:23:06.405Z,94917.63
2019-05-17T18:25:36.247Z,94916.42
2019-05-17T18:28:06.075Z,94919.29
2019-05-17T18:30:35.629Z,94909.91
2019-05-17T18:33:05.634Z,94921.09
2019-05-17T18:35:35.444Z,94920.83
2019-05-17T18:38:05.415Z,94930.29
2019-05-17T18:40:34.803Z,94927.44
2019-05-17T18:43:04.234Z,94923.48
2019-05-17T18:45:33.791Z,94925.44
2019-05-17T18:48:03.366Z,94931.81
2019-05-17T18:50:32.838Z,94934.91
2019-05-17T18:53:03.302Z,94941.38
2019-05-17T18:55:32.884Z,94928.55
2019-05-17T18:58:02.296Z,94939.47
2019-05-17T19:00:31.752Z,94938.46
2019-05-17T19:03:01.100Z,94941.10
2019-05-17T19:05:30.441Z,94941.95
2019-05-17T19:08:00.042Z,94936.16
2019-05-17T19:10:30.792Z,94949.92
2019-05-17T19:13:00.148Z,94941.22
2019-05-17T19:15:29.892Z,94942.64
2019-05-17T19:17:59.567Z,94939.64
2019-05-17T19:20:28.897Z,94944.80
2019-05-17T19:22:58.587Z,94948.52
2019-05-17T19:25:28.605Z,94958.16
2019-05-17T19:27:59.893Z,94970.76
2019-05-17T19:30:29.837Z,94979.62
2019-05-17T19:33:00.831Z,94970.45
2019-05-17T19:35:30.205Z,94967.39
2019-05-17T19:37:59.642Z,94975.55
2019-05-17T19:40:28.979Z,94983.54
2019-05-17T19:42:58.392Z,94985.87
2019-05-17T19:45:27.729Z,94988.20
2019-05-17T19:47:57.121Z,94987.91
2019-05-17T19:50:26.620Z,94984.73
2019-05-17T19:52:56.378Z,94984.11
2019-05-17T19:55:25.724Z,94980.96
2019-05-17T19:57:55.141Z,94981.39
2019-05-17T20:00:24.661Z,94981.88
2019-05-17T20:02:54.011Z,94980.54
2019-05-17T20:05:23.359Z,94979.94
2019-05-17T20:07:52.756Z,94979.29
2019-05-17T20:10:23.351Z,94979.39
2019-05-17T20:12:53.485Z,94968.88
2019-05-17T20:15:34.241Z,94968.67
2019-05-17T20:17:53.923Z,94954.67
2019-05-17T20:20:23.356Z,94949.36
2019-05-17T20:22:53.110Z,94936.73
2019-05-17T20:25:24.140Z,94937.10
2019-05-17T20:27:56.687Z,94944.77
2019-05-17T20:30:26.015Z,94943.05
2019-05-17T20:32:55.376Z,94942.02
2019-05-17T20:35:24.791Z,94940.70
2019-05-17T20:37:54.170Z,94939.18
2019-05-17T20:40:24.014Z,94947.80
2019-05-17T20:42:53.351Z,94935.70
2019-05-17T20:45:32.546Z,94942.99
2019-05-17T20:47:53.797Z,94942.39
2019-05-17T20:50:23.115Z,94943.66
2019-05-17T20:52:52.453Z,94938.69
2019-05-17T20:55:21.779Z,94928.92
2019-05-17T20:57:51.185Z,94929.48
2019-05-17T21:00:20.711Z,94924.16
2019-05-17T21:02:50.088Z,94926.31
2019-05-17T21:05:19.678Z,94929.35
2019-05-17T21:07:49.166Z,94927.86
2019-05-17T21:10:18.678Z,94935.45
2019-05-17T21:12:48.002Z,94941.04
2019-05-17T21:15:17.355Z,94936.92
2019-05-17T21:17:46.759Z,94935.47
2019-05-17T21:20:16.300Z,94938.02
2019-05-17T21:22:45.649Z,94935.23
2019-05-17T21:25:15.123Z,94939.41
2019-05-17T21:27:44.505Z,94939.94
2019-05-17T21:30:13.938Z,94941.10
2019-05-17T21:32:43.587Z,94939.69
2019-05-17T21:35:12.965Z,94943.80
2019-05-17T21:37:42.328Z,94944.53
2019-05-17T21:40:12.165Z,94945.88
2019-05-17T21:42:41.521Z,94945.78
2019-05-17T21:45:11.179Z,94943.64
2019-05-17T21:47:40.561Z,94950.27
2019-05-17T21:50:10.267Z,94953.59
2019-05-17T21:52:39.602Z,94950.03
2019-05-17T21:55:08.985Z,94954.09
2019-05-17T21:57:38.370Z,94958.97
2019-05-17T22:00:11.989Z,94958.86
2019-05-17T22:02:41.311Z,94966.56
2019-05-17T22:05:10.859Z,94970.31
2019-05-17T22:07:40.293Z,94967.17
2019-05-17T22:10:09.814Z,94964.49
2019-05-17T22:12:39.150Z,94961.92
2019-05-17T22:15:08.759Z,94955.57
2019-05-17T22:17:38.124Z,94946.72
2019-05-17T22:20:08.029Z,94946.89
2019-05-17T22:22:37.390Z,94949.70
2019-05-17T22:25:06.863Z,94946.59
2019-05-17T22:27:37.989Z,94898.06
2019-05-17T22:30:07.673Z,94944.80
2019-05-17T22:32:37.025Z,94943.20
2019-05-17T22:35:06.703Z,94942.27
2019-05-17T22:37:36.059Z,94933.24
2019-05-17T22:40:06.018Z,94935.52
2019-05-17T22:42:35.347Z,94942.92
2019-05-17T22:45:04.870Z,94932.04
2019-05-17T22:47:34.247Z,94929.23
2019-05-17T22:50:03.789Z,94931.80
2019-05-17T22:52:33.215Z,94922.78
2019-05-17T22:55:02.583Z,94920.52
2019-05-17T22:57:31.966Z,94919.86
2019-05-17T23:00:01.366Z,94915.67
2019-05-17T23:02:30.692Z,94912.89
2019-05-17T23:05:00.032Z,94911.67
2019-05-17T23:07:29.491Z,94927.91
2019-05-17T23:09:58.922Z,94923.95
2019-05-17T23:12:28.257Z,94923.19
2019-05-17T23:14:57.609Z,94931.40
2019-05-17T23:17:27.030Z,94928.48
2019-05-17T23:19:56.400Z,94927.69
2019-05-17T23:22:25.751Z,94939.84
2019-05-17T23:24:55.521Z,94931.98
2019-05-17T23:27:24.896Z,94936.72
2019-05-17T23:29:54.256Z,94937.86
2019-05-17T23:32:23.666Z,94941.73
2019-05-17T23:34:52.995Z,94941.27
2019-05-17T23:37:22.387Z,94944.67
2019-05-17T23:39:51.875Z,94944.01
2019-05-17T23:42:21.196Z,94947.83
2019-05-17T23:44:50.565Z,94952.16
2019-05-17T23:47:19.931Z,94955.81
2019-05-17T23:49:49.337Z,94957.80
2019-05-17T23:52:18.653Z,94959.07
2019-05-17T23:54:48.156Z,94959.20
2019-05-17T23:57:17.529Z,94959.23
2019-05-17T23:59:46.902Z,94956.53
